Impacts TAF Board INFO
FOR SITUATIONAL AWARENESS. NOT TO BE USED FOR FLIGHT PLANNING PURPOSES.
IDs:

KMTH - Marathon Arpt, FL, US

Issued at 0532 UTC 19 Jun 2018
Updated at 0855 UTC 19 Jun 2018
Potential Impact None Slight Moderate High
Time0753Z 19/09Z 19/10Z 19/11Z 19/12Z 19/13Z 19/14Z 19/15Z 19/16Z 19/17Z 19/18Z 19/19Z 19/20Z 19/21Z>>
Type OBS PRVL PRVL PRVL PRVL PRVL PRVL PRVL PRVL PRVL PRVL PRVL PRVL PRVL
VIS 10 >6 >6 >6 >6 >6 >6 >6 >6 >6 >6 >6 >6 >6
CIG -- -- -- -- -- -- -- -- -- -- -- -- -- --
Cover CLR FEW FEW FEW FEW FEW FEW FEW FEW SCT SCT SCT SCT SCT
FltCat VFR VFR VFR VFR VFR VFR VFR VFR VFR VFR VFR VFR VFR VFR
WX -- -- -- -- -- -- -- -- -- VCSH VCSH VCSH VCSH VCSH
WDir 90 80 80 80 80 80 80 80 80 VRB VRB VRB VRB VRB
WSpd 3 6 6 6 6 6 6 6 6 5 5 5 5 5
WGst -- -- -- -- -- -- -- -- -- -- -- -- -- --

Raw TAF
KMTH 190532Z 1906/2006 08006KT P6SM FEW020
  FM191700 VRB05KT P6SM VCSH SCT020
  FM192200 VRB05KT P6SM FEW020


Raw METAR
KMTH 190753Z AUTO 09003KT 10SM CLR 27/23 A2998 RMK AO2 SLP152 T02720228
KMTH 190653Z AUTO 06004KT 10SM CLR 27/23 A2999 RMK AO2 SLP155 T02720233
KMTH 190553Z AUTO 08004KT 10SM CLR 28/23 A3001 RMK AO2 SLP161 T02780233 10289 20278 58012

METAR Board
Radar Display
Forecast Discussion

FOR SITUATIONAL AWARENESS. NOT TO BE USED FOR FLIGHT PLANNING PURPOSES.